sensor_id;sensor_type;location;lat;lon;timestamp;P1;durP1;ratioP1;P2;durP2;ratioP2
24090;SDS011;12272;52.426;17.100;2023-10-09T00:02:20;48.42;;;22.08;;
24090;SDS011;12272;52.426;17.100;2023-10-09T00:07:22;46.08;;;22.15;;
24090;SDS011;12272;52.426;17.100;2023-10-09T00:12:32;45.50;;;21.63;;
24090;SDS011;12272;52.426;17.100;2023-10-09T00:17:35;41.07;;;20.83;;
24090;SDS011;12272;52.426;17.100;2023-10-09T00:22:40;33.13;;;14.63;;
24090;SDS011;12272;52.426;17.100;2023-10-09T00:27:47;26.87;;;16.70;;
24090;SDS011;12272;52.426;17.100;2023-10-09T00:32:50;26.00;;;14.43;;
24090;SDS011;12272;52.426;17.100;2023-10-09T00:38:03;24.23;;;14.07;;
24090;SDS011;12272;52.426;17.100;2023-10-09T00:43:22;24.05;;;12.77;;
24090;SDS011;12272;52.426;17.100;2023-10-09T00:48:31;19.95;;;11.93;;
24090;SDS011;12272;52.426;17.100;2023-10-09T00:53:40;26.42;;;13.10;;
24090;SDS011;12272;52.426;17.100;2023-10-09T00:58:42;20.35;;;11.35;;
24090;SDS011;12272;52.426;17.100;2023-10-09T01:03:45;18.17;;;10.80;;
24090;SDS011;12272;52.426;17.100;2023-10-09T01:08:48;14.87;;;9.37;;
24090;SDS011;12272;52.426;17.100;2023-10-09T01:13:58;16.77;;;8.95;;
24090;SDS011;12272;52.426;17.100;2023-10-09T01:19:09;16.63;;;8.93;;
24090;SDS011;12272;52.426;17.100;2023-10-09T01:24:20;17.65;;;10.60;;
24090;SDS011;12272;52.426;17.100;2023-10-09T01:29:24;14.05;;;8.98;;
24090;SDS011;12272;52.426;17.100;2023-10-09T01:34:32;14.55;;;9.52;;
24090;SDS011;12272;52.426;17.100;2023-10-09T01:39:51;11.70;;;8.38;;
24090;SDS011;12272;52.426;17.100;2023-10-09T01:44:54;17.55;;;9.55;;
24090;SDS011;12272;52.426;17.100;2023-10-09T01:49:57;14.68;;;7.90;;
24090;SDS011;12272;52.426;17.100;2023-10-09T01:54:59;12.15;;;7.82;;
24090;SDS011;12272;52.426;17.100;2023-10-09T02:00:09;15.57;;;8.83;;
24090;SDS011;12272;52.426;17.100;2023-10-09T02:05:18;13.03;;;7.77;;
24090;SDS011;12272;52.426;17.100;2023-10-09T02:10:21;14.38;;;7.30;;
24090;SDS011;12272;52.426;17.100;2023-10-09T02:15:34;12.00;;;7.87;;
24090;SDS011;12272;52.426;17.100;2023-10-09T02:20:46;11.00;;;7.40;;
24090;SDS011;12272;52.426;17.100;2023-10-09T02:25:57;15.07;;;7.23;;
24090;SDS011;12272;52.426;17.100;2023-10-09T02:31:10;14.67;;;7.80;;
24090;SDS011;12272;52.426;17.100;2023-10-09T02:36:13;11.67;;;6.43;;
24090;SDS011;12272;52.426;17.100;2023-10-09T02:41:16;9.82;;;6.63;;
24090;SDS011;12272;52.426;17.100;2023-10-09T02:46:19;11.13;;;6.70;;
24090;SDS011;12272;52.426;17.100;2023-10-09T02:51:32;9.73;;;6.63;;
24090;SDS011;12272;52.426;17.100;2023-10-09T02:56:35;10.38;;;7.28;;
24090;SDS011;12272;52.426;17.100;2023-10-09T03:01:40;11.33;;;8.07;;
24090;SDS011;12272;52.426;17.100;2023-10-09T03:06:42;14.60;;;9.43;;
24090;SDS011;12272;52.426;17.100;2023-10-09T03:11:52;11.30;;;8.17;;
24090;SDS011;12272;52.426;17.100;2023-10-09T03:16:57;13.38;;;8.48;;
24090;SDS011;12272;52.426;17.100;2023-10-09T03:22:00;10.80;;;9.27;;
24090;SDS011;12272;52.426;17.100;2023-10-09T03:27:04;12.03;;;8.43;;
24090;SDS011;12272;52.426;17.100;2023-10-09T03:32:06;9.80;;;6.10;;
24090;SDS011;12272;52.426;17.100;2023-10-09T03:37:09;6.78;;;6.07;;
24090;SDS011;12272;52.426;17.100;2023-10-09T03:42:23;8.77;;;6.10;;
24090;SDS011;12272;52.426;17.100;2023-10-09T03:47:26;8.07;;;5.95;;
24090;SDS011;12272;52.426;17.100;2023-10-09T03:52:30;9.30;;;6.38;;
24090;SDS011;12272;52.426;17.100;2023-10-09T03:57:32;9.93;;;6.80;;
24090;SDS011;12272;52.426;17.100;2023-10-09T04:02:35;8.57;;;5.97;;
24090;SDS011;12272;52.426;17.100;2023-10-09T04:07:38;9.40;;;5.85;;
24090;SDS011;12272;52.426;17.100;2023-10-09T04:12:41;7.57;;;6.20;;
24090;SDS011;12272;52.426;17.100;2023-10-09T04:17:44;9.97;;;6.87;;
24090;SDS011;12272;52.426;17.100;2023-10-09T04:22:46;10.40;;;6.80;;
24090;SDS011;12272;52.426;17.100;2023-10-09T04:27:56;8.77;;;6.80;;
24090;SDS011;12272;52.426;17.100;2023-10-09T04:33:12;9.85;;;6.88;;
24090;SDS011;12272;52.426;17.100;2023-10-09T04:38:37;6.80;;;5.70;;
24090;SDS011;12272;52.426;17.100;2023-10-09T04:43:40;6.32;;;5.43;;
24090;SDS011;12272;52.426;17.100;2023-10-09T04:48:46;7.28;;;5.75;;
24090;SDS011;12272;52.426;17.100;2023-10-09T04:53:49;8.63;;;5.45;;
24090;SDS011;12272;52.426;17.100;2023-10-09T04:59:10;8.63;;;6.20;;
24090;SDS011;12272;52.426;17.100;2023-10-09T05:04:20;11.15;;;6.90;;
24090;SDS011;12272;52.426;17.100;2023-10-09T05:09:41;11.70;;;8.27;;
24090;SDS011;12272;52.426;17.100;2023-10-09T05:14:58;15.52;;;9.13;;
24090;SDS011;12272;52.426;17.100;2023-10-09T05:20:15;15.10;;;8.52;;
24090;SDS011;12272;52.426;17.100;2023-10-09T05:25:29;13.33;;;10.53;;
24090;SDS011;12272;52.426;17.100;2023-10-09T05:30:51;12.53;;;9.67;;
24090;SDS011;12272;52.426;17.100;2023-10-09T05:36:08;9.20;;;5.27;;
24090;SDS011;12272;52.426;17.100;2023-10-09T05:41:34;8.77;;;5.40;;
24090;SDS011;12272;52.426;17.100;2023-10-09T05:46:54;10.50;;;6.30;;
24090;SDS011;12272;52.426;17.100;2023-10-09T05:52:26;7.47;;;5.23;;
24090;SDS011;12272;52.426;17.100;2023-10-09T05:57:44;9.77;;;5.03;;
24090;SDS011;12272;52.426;17.100;2023-10-09T06:02:50;14.23;;;6.23;;
24090;SDS011;12272;52.426;17.100;2023-10-09T06:08:11;11.23;;;6.03;;
24090;SDS011;12272;52.426;17.100;2023-10-09T06:13:15;7.27;;;5.47;;
24090;SDS011;12272;52.426;17.100;2023-10-09T06:18:37;5.13;;;3.60;;
24090;SDS011;12272;52.426;17.100;2023-10-09T06:23:45;9.32;;;6.32;;
24090;SDS011;12272;52.426;17.100;2023-10-09T06:29:06;7.53;;;6.00;;
24090;SDS011;12272;52.426;17.100;2023-10-09T06:34:19;5.45;;;3.90;;
24090;SDS011;12272;52.426;17.100;2023-10-09T06:39:24;5.07;;;4.57;;
24090;SDS011;12272;52.426;17.100;2023-10-09T06:44:45;5.72;;;4.82;;
24090;SDS011;12272;52.426;17.100;2023-10-09T06:49:54;4.93;;;3.83;;
24090;SDS011;12272;52.426;17.100;2023-10-09T06:55:35;4.85;;;3.63;;
24090;SDS011;12272;52.426;17.100;2023-10-09T07:00:50;6.30;;;3.78;;
24090;SDS011;12272;52.426;17.100;2023-10-09T07:06:11;5.57;;;4.03;;
24090;SDS011;12272;52.426;17.100;2023-10-09T07:11:27;7.10;;;5.40;;
24090;SDS011;12272;52.426;17.100;2023-10-09T07:16:42;9.25;;;5.35;;
24090;SDS011;12272;52.426;17.100;2023-10-09T07:22:02;13.00;;;6.07;;
24090;SDS011;12272;52.426;17.100;2023-10-09T07:27:05;7.47;;;5.05;;
24090;SDS011;12272;52.426;17.100;2023-10-09T07:32:17;7.25;;;4.43;;
24090;SDS011;12272;52.426;17.100;2023-10-09T07:37:23;8.13;;;5.45;;
24090;SDS011;12272;52.426;17.100;2023-10-09T07:42:32;5.60;;;4.60;;
24090;SDS011;12272;52.426;17.100;2023-10-09T07:47:39;7.55;;;5.85;;
24090;SDS011;12272;52.426;17.100;2023-10-09T07:53:00;6.60;;;4.05;;
24090;SDS011;12272;52.426;17.100;2023-10-09T07:58:16;5.85;;;4.13;;
24090;SDS011;12272;52.426;17.100;2023-10-09T08:03:27;6.70;;;5.20;;
24090;SDS011;12272;52.426;17.100;2023-10-09T08:08:35;12.10;;;6.73;;
24090;SDS011;12272;52.426;17.100;2023-10-09T08:13:40;4.38;;;3.45;;
24090;SDS011;12272;52.426;17.100;2023-10-09T08:18:51;8.00;;;5.03;;
24090;SDS011;12272;52.426;17.100;2023-10-09T08:23:54;6.10;;;4.70;;
24090;SDS011;12272;52.426;17.100;2023-10-09T08:28:56;8.75;;;6.05;;
24090;SDS011;12272;52.426;17.100;2023-10-09T08:34:18;6.20;;;5.30;;
24090;SDS011;12272;52.426;17.100;2023-10-09T08:39:30;3.97;;;3.50;;
24090;SDS011;12272;52.426;17.100;2023-10-09T08:44:37;7.63;;;6.83;;
24090;SDS011;12272;52.426;17.100;2023-10-09T08:49:46;6.75;;;5.30;;
24090;SDS011;12272;52.426;17.100;2023-10-09T08:54:49;6.35;;;5.03;;
24090;SDS011;12272;52.426;17.100;2023-10-09T08:59:51;9.68;;;4.88;;
24090;SDS011;12272;52.426;17.100;2023-10-09T09:04:54;5.30;;;4.15;;
24090;SDS011;12272;52.426;17.100;2023-10-09T09:09:57;5.57;;;3.67;;
24090;SDS011;12272;52.426;17.100;2023-10-09T09:15:19;6.80;;;3.85;;
24090;SDS011;12272;52.426;17.100;2023-10-09T09:20:25;5.43;;;4.00;;
24090;SDS011;12272;52.426;17.100;2023-10-09T09:25:40;5.15;;;2.67;;
24090;SDS011;12272;52.426;17.100;2023-10-09T09:30:50;6.33;;;3.33;;
24090;SDS011;12272;52.426;17.100;2023-10-09T09:35:57;4.72;;;3.03;;
24090;SDS011;12272;52.426;17.100;2023-10-09T09:41:00;5.00;;;3.67;;
24090;SDS011;12272;52.426;17.100;2023-10-09T09:46:04;4.63;;;3.05;;
24090;SDS011;12272;52.426;17.100;2023-10-09T09:51:10;3.67;;;2.78;;
24090;SDS011;12272;52.426;17.100;2023-10-09T09:56:16;3.17;;;1.77;;
24090;SDS011;12272;52.426;17.100;2023-10-09T10:01:28;3.10;;;1.97;;
24090;SDS011;12272;52.426;17.100;2023-10-09T10:06:34;3.15;;;2.15;;
24090;SDS011;12272;52.426;17.100;2023-10-09T10:11:46;3.60;;;2.78;;
24090;SDS011;12272;52.426;17.100;2023-10-09T10:17:01;2.67;;;2.15;;
24090;SDS011;12272;52.426;17.100;2023-10-09T10:22:28;3.63;;;2.83;;
24090;SDS011;12272;52.426;17.100;2023-10-09T10:27:32;4.03;;;2.45;;
24090;SDS011;12272;52.426;17.100;2023-10-09T10:38:24;3.65;;;2.30;;
24090;SDS011;12272;52.426;17.100;2023-10-09T10:43:47;2.88;;;2.50;;
24090;SDS011;12272;52.426;17.100;2023-10-09T10:49:06;2.63;;;1.92;;
24090;SDS011;12272;52.426;17.100;2023-10-09T10:54:27;3.60;;;2.05;;
24090;SDS011;12272;52.426;17.100;2023-10-09T10:59:39;3.35;;;2.10;;
24090;SDS011;12272;52.426;17.100;2023-10-09T11:04:45;4.38;;;2.28;;
24090;SDS011;12272;52.426;17.100;2023-10-09T11:09:56;3.92;;;2.45;;
24090;SDS011;12272;52.426;17.100;2023-10-09T11:15:00;2.60;;;2.28;;
24090;SDS011;12272;52.426;17.100;2023-10-09T11:20:21;3.42;;;2.50;;
24090;SDS011;12272;52.426;17.100;2023-10-09T11:25:28;2.78;;;2.33;;
24090;SDS011;12272;52.426;17.100;2023-10-09T11:30:32;2.88;;;2.20;;
24090;SDS011;12272;52.426;17.100;2023-10-09T11:35:36;3.70;;;1.95;;
24090;SDS011;12272;52.426;17.100;2023-10-09T11:40:39;2.05;;;1.83;;
24090;SDS011;12272;52.426;17.100;2023-10-09T11:45:53;2.80;;;2.30;;
24090;SDS011;12272;52.426;17.100;2023-10-09T11:51:13;2.53;;;1.97;;
24090;SDS011;12272;52.426;17.100;2023-10-09T11:56:21;2.72;;;2.22;;
24090;SDS011;12272;52.426;17.100;2023-10-09T12:01:27;3.42;;;2.33;;
24090;SDS011;12272;52.426;17.100;2023-10-09T12:06:37;3.45;;;2.70;;
24090;SDS011;12272;52.426;17.100;2023-10-09T12:11:44;3.03;;;2.58;;
24090;SDS011;12272;52.426;17.100;2023-10-09T12:17:05;3.30;;;2.22;;
24090;SDS011;12272;52.426;17.100;2023-10-09T12:22:09;3.78;;;3.15;;
24090;SDS011;12272;52.426;17.100;2023-10-09T12:27:18;4.53;;;3.28;;
24090;SDS011;12272;52.426;17.100;2023-10-09T12:32:22;3.03;;;2.45;;
24090;SDS011;12272;52.426;17.100;2023-10-09T12:37:24;4.47;;;3.92;;
24090;SDS011;12272;52.426;17.100;2023-10-09T12:42:27;5.90;;;5.18;;
24090;SDS011;12272;52.426;17.100;2023-10-09T12:47:30;7.60;;;5.30;;
24090;SDS011;12272;52.426;17.100;2023-10-09T12:52:35;4.63;;;3.67;;
24090;SDS011;12272;52.426;17.100;2023-10-09T12:57:39;5.35;;;3.22;;
24090;SDS011;12272;52.426;17.100;2023-10-09T13:02:42;5.85;;;5.28;;
24090;SDS011;12272;52.426;17.100;2023-10-09T13:07:46;6.30;;;4.63;;
24090;SDS011;12272;52.426;17.100;2023-10-09T13:12:49;7.90;;;4.50;;
24090;SDS011;12272;52.426;17.100;2023-10-09T13:17:57;3.47;;;3.17;;
24090;SDS011;12272;52.426;17.100;2023-10-09T13:23:00;6.15;;;4.38;;
24090;SDS011;12272;52.426;17.100;2023-10-09T13:28:03;4.35;;;3.65;;
24090;SDS011;12272;52.426;17.100;2023-10-09T13:33:06;4.87;;;3.47;;
24090;SDS011;12272;52.426;17.100;2023-10-09T13:38:09;3.97;;;3.50;;
24090;SDS011;12272;52.426;17.100;2023-10-09T13:43:12;4.93;;;4.43;;
24090;SDS011;12272;52.426;17.100;2023-10-09T13:48:19;3.80;;;3.38;;
24090;SDS011;12272;52.426;17.100;2023-10-09T13:53:23;4.20;;;3.80;;
24090;SDS011;12272;52.426;17.100;2023-10-09T13:58:29;5.57;;;4.03;;
24090;SDS011;12272;52.426;17.100;2023-10-09T14:03:33;7.38;;;6.60;;
24090;SDS011;12272;52.426;17.100;2023-10-09T14:08:36;5.13;;;4.35;;
24090;SDS011;12272;52.426;17.100;2023-10-09T14:13:44;5.72;;;5.03;;
24090;SDS011;12272;52.426;17.100;2023-10-09T14:18:55;3.47;;;3.17;;
24090;SDS011;12272;52.426;17.100;2023-10-09T14:24:02;6.23;;;4.77;;
24090;SDS011;12272;52.426;17.100;2023-10-09T14:29:20;5.90;;;5.32;;
24090;SDS011;12272;52.426;17.100;2023-10-09T14:34:27;4.22;;;3.83;;
24090;SDS011;12272;52.426;17.100;2023-10-09T14:39:38;4.87;;;4.43;;
24090;SDS011;12272;52.426;17.100;2023-10-09T14:44:41;9.32;;;5.75;;
24090;SDS011;12272;52.426;17.100;2023-10-09T14:49:47;7.65;;;5.00;;
24090;SDS011;12272;52.426;17.100;2023-10-09T14:54:50;5.10;;;4.60;;
24090;SDS011;12272;52.426;17.100;2023-10-09T14:59:53;6.00;;;5.37;;
24090;SDS011;12272;52.426;17.100;2023-10-09T15:04:55;7.18;;;4.28;;
24090;SDS011;12272;52.426;17.100;2023-10-09T15:09:58;16.25;;;11.27;;
24090;SDS011;12272;52.426;17.100;2023-10-09T15:15:06;14.18;;;9.80;;
24090;SDS011;12272;52.426;17.100;2023-10-09T15:20:15;8.35;;;6.28;;
24090;SDS011;12272;52.426;17.100;2023-10-09T15:25:19;6.20;;;5.60;;
24090;SDS011;12272;52.426;17.100;2023-10-09T15:30:21;9.18;;;5.25;;
24090;SDS011;12272;52.426;17.100;2023-10-09T15:35:26;8.43;;;5.78;;
24090;SDS011;12272;52.426;17.100;2023-10-09T15:40:30;5.47;;;4.57;;
24090;SDS011;12272;52.426;17.100;2023-10-09T15:45:40;8.83;;;6.33;;
24090;SDS011;12272;52.426;17.100;2023-10-09T15:50:44;6.13;;;5.30;;
24090;SDS011;12272;52.426;17.100;2023-10-09T15:55:50;6.70;;;5.33;;
24090;SDS011;12272;52.426;17.100;2023-10-09T16:00:55;11.27;;;7.78;;
24090;SDS011;12272;52.426;17.100;2023-10-09T16:05:58;10.80;;;7.53;;
24090;SDS011;12272;52.426;17.100;2023-10-09T16:11:01;8.52;;;5.03;;
24090;SDS011;12272;52.426;17.100;2023-10-09T16:16:04;9.57;;;6.00;;
24090;SDS011;12272;52.426;17.100;2023-10-09T16:21:10;7.60;;;6.07;;
24090;SDS011;12272;52.426;17.100;2023-10-09T16:26:14;9.97;;;8.40;;
24090;SDS011;12272;52.426;17.100;2023-10-09T16:31:18;13.63;;;9.10;;
24090;SDS011;12272;52.426;17.100;2023-10-09T16:36:21;14.97;;;9.47;;
24090;SDS011;12272;52.426;17.100;2023-10-09T16:41:23;15.85;;;10.27;;
24090;SDS011;12272;52.426;17.100;2023-10-09T16:46:28;18.88;;;11.38;;
24090;SDS011;12272;52.426;17.100;2023-10-09T16:51:30;36.37;;;18.90;;
24090;SDS011;12272;52.426;17.100;2023-10-09T16:56:33;29.73;;;17.13;;
24090;SDS011;12272;52.426;17.100;2023-10-09T17:01:35;32.90;;;15.43;;
24090;SDS011;12272;52.426;17.100;2023-10-09T17:06:38;17.57;;;12.47;;
24090;SDS011;12272;52.426;17.100;2023-10-09T17:11:41;27.67;;;15.87;;
24090;SDS011;12272;52.426;17.100;2023-10-09T17:16:43;31.70;;;17.17;;
24090;SDS011;12272;52.426;17.100;2023-10-09T17:21:49;24.10;;;14.10;;
24090;SDS011;12272;52.426;17.100;2023-10-09T17:26:52;19.93;;;12.07;;
24090;SDS011;12272;52.426;17.100;2023-10-09T17:31:57;16.70;;;10.57;;
24090;SDS011;12272;52.426;17.100;2023-10-09T17:37:00;15.17;;;10.83;;
24090;SDS011;12272;52.426;17.100;2023-10-09T17:42:03;15.25;;;11.32;;
24090;SDS011;12272;52.426;17.100;2023-10-09T17:47:07;10.47;;;7.63;;
24090;SDS011;12272;52.426;17.100;2023-10-09T17:52:09;20.63;;;12.40;;
24090;SDS011;12272;52.426;17.100;2023-10-09T17:57:13;18.00;;;12.20;;
24090;SDS011;12272;52.426;17.100;2023-10-09T18:02:16;14.32;;;10.75;;
24090;SDS011;12272;52.426;17.100;2023-10-09T18:07:21;16.70;;;11.83;;
24090;SDS011;12272;52.426;17.100;2023-10-09T18:12:25;18.27;;;13.07;;
24090;SDS011;12272;52.426;17.100;2023-10-09T18:17:27;18.10;;;13.30;;
24090;SDS011;12272;52.426;17.100;2023-10-09T18:22:31;18.55;;;14.02;;
24090;SDS011;12272;52.426;17.100;2023-10-09T18:27:33;22.52;;;14.80;;
24090;SDS011;12272;52.426;17.100;2023-10-09T18:32:36;17.10;;;13.87;;
24090;SDS011;12272;52.426;17.100;2023-10-09T18:37:39;27.57;;;15.37;;
24090;SDS011;12272;52.426;17.100;2023-10-09T18:42:42;16.90;;;12.13;;
24090;SDS011;12272;52.426;17.100;2023-10-09T18:47:44;25.67;;;15.67;;
24090;SDS011;12272;52.426;17.100;2023-10-09T18:52:48;19.13;;;14.50;;
24090;SDS011;12272;52.426;17.100;2023-10-09T18:57:54;21.00;;;14.93;;
24090;SDS011;12272;52.426;17.100;2023-10-09T19:02:57;16.97;;;12.43;;
24090;SDS011;12272;52.426;17.100;2023-10-09T19:08:02;25.73;;;17.23;;
24090;SDS011;12272;52.426;17.100;2023-10-09T19:13:05;17.00;;;13.17;;
24090;SDS011;12272;52.426;17.100;2023-10-09T19:18:12;17.30;;;13.40;;
24090;SDS011;12272;52.426;17.100;2023-10-09T19:23:15;21.57;;;15.63;;
24090;SDS011;12272;52.426;17.100;2023-10-09T19:28:17;28.00;;;18.83;;
24090;SDS011;12272;52.426;17.100;2023-10-09T19:33:21;23.77;;;16.37;;
24090;SDS011;12272;52.426;17.100;2023-10-09T19:38:24;34.60;;;21.83;;
24090;SDS011;12272;52.426;17.100;2023-10-09T19:43:27;42.50;;;28.27;;
24090;SDS011;12272;52.426;17.100;2023-10-09T19:48:30;45.03;;;26.77;;
24090;SDS011;12272;52.426;17.100;2023-10-09T19:53:35;35.67;;;21.90;;
24090;SDS011;12272;52.426;17.100;2023-10-09T19:58:39;43.93;;;25.30;;
24090;SDS011;12272;52.426;17.100;2023-10-09T20:03:42;45.47;;;26.37;;
24090;SDS011;12272;52.426;17.100;2023-10-09T20:08:45;34.67;;;22.47;;
24090;SDS011;12272;52.426;17.100;2023-10-09T20:13:49;32.13;;;21.37;;
24090;SDS011;12272;52.426;17.100;2023-10-09T20:18:52;29.50;;;20.37;;
24090;SDS011;12272;52.426;17.100;2023-10-09T20:23:57;23.70;;;16.33;;
24090;SDS011;12272;52.426;17.100;2023-10-09T20:29:02;42.57;;;25.93;;
24090;SDS011;12272;52.426;17.100;2023-10-09T20:34:06;45.50;;;25.80;;
24090;SDS011;12272;52.426;17.100;2023-10-09T20:39:11;37.27;;;23.27;;
24090;SDS011;12272;52.426;17.100;2023-10-09T20:44:14;42.53;;;24.27;;
24090;SDS011;12272;52.426;17.100;2023-10-09T20:49:17;43.73;;;25.73;;
24090;SDS011;12272;52.426;17.100;2023-10-09T20:54:20;33.90;;;20.67;;
24090;SDS011;12272;52.426;17.100;2023-10-09T20:59:23;33.23;;;20.20;;
24090;SDS011;12272;52.426;17.100;2023-10-09T21:04:25;23.23;;;16.00;;
24090;SDS011;12272;52.426;17.100;2023-10-09T21:09:28;38.00;;;23.27;;
24090;SDS011;12272;52.426;17.100;2023-10-09T21:14:31;31.77;;;20.07;;
24090;SDS011;12272;52.426;17.100;2023-10-09T21:19:33;35.73;;;21.93;;
24090;SDS011;12272;52.426;17.100;2023-10-09T21:24:45;38.97;;;23.87;;
24090;SDS011;12272;52.426;17.100;2023-10-09T21:29:51;38.10;;;23.07;;
24090;SDS011;12272;52.426;17.100;2023-10-09T21:41:30;41.43;;;24.90;;
24090;SDS011;12272;52.426;17.100;2023-10-09T21:46:33;38.30;;;23.83;;
24090;SDS011;12272;52.426;17.100;2023-10-09T21:51:36;28.43;;;17.57;;
24090;SDS011;12272;52.426;17.100;2023-10-09T21:56:39;41.83;;;26.13;;
24090;SDS011;12272;52.426;17.100;2023-10-09T22:01:41;36.63;;;23.57;;
24090;SDS011;12272;52.426;17.100;2023-10-09T22:06:44;40.93;;;23.77;;
24090;SDS011;12272;52.426;17.100;2023-10-09T22:11:46;43.37;;;25.30;;
24090;SDS011;12272;52.426;17.100;2023-10-09T22:16:49;37.33;;;21.70;;
24090;SDS011;12272;52.426;17.100;2023-10-09T22:21:51;33.27;;;21.63;;
24090;SDS011;12272;52.426;17.100;2023-10-09T22:26:58;34.17;;;19.03;;
24090;SDS011;12272;52.426;17.100;2023-10-09T22:32:00;27.97;;;17.33;;
24090;SDS011;12272;52.426;17.100;2023-10-09T22:37:03;25.77;;;16.63;;
24090;SDS011;12272;52.426;17.100;2023-10-09T22:42:14;18.90;;;12.33;;
24090;SDS011;12272;52.426;17.100;2023-10-09T22:47:19;26.10;;;17.50;;
24090;SDS011;12272;52.426;17.100;2023-10-09T22:52:25;25.07;;;16.57;;
24090;SDS011;12272;52.426;17.100;2023-10-09T22:57:27;22.60;;;13.57;;
24090;SDS011;12272;52.426;17.100;2023-10-09T23:02:30;29.90;;;17.43;;
24090;SDS011;12272;52.426;17.100;2023-10-09T23:07:45;19.93;;;13.80;;
24090;SDS011;12272;52.426;17.100;2023-10-09T23:13:01;27.50;;;18.20;;
24090;SDS011;12272;52.426;17.100;2023-10-09T23:18:16;24.63;;;16.70;;
24090;SDS011;12272;52.426;17.100;2023-10-09T23:23:35;27.80;;;17.13;;
24090;SDS011;12272;52.426;17.100;2023-10-09T23:28:42;23.17;;;14.80;;
24090;SDS011;12272;52.426;17.100;2023-10-09T23:33:53;24.00;;;15.97;;
24090;SDS011;12272;52.426;17.100;2023-10-09T23:38:59;25.37;;;16.53;;
24090;SDS011;12272;52.426;17.100;2023-10-09T23:44:11;22.60;;;14.37;;
24090;SDS011;12272;52.426;17.100;2023-10-09T23:49:22;24.17;;;14.57;;
24090;SDS011;12272;52.426;17.100;2023-10-09T23:54:26;28.70;;;16.67;;
24090;SDS011;12272;52.426;17.100;2023-10-09T23:59:29;23.17;;;16.17;;
